Time;durP1;ratioP1;P1;durP2;ratioP2;P2;SDS_P1;SDS_P2;PMS_P1;PMS_P2;Temp;Humidity;BMP_temperature;BMP_pressure;BME280_temperature;BME280_humidity;BME280_pressure;Samples;Min_cycle;Max_cycle;Signal;HPM_P1;HPM_P2
2022/04/22 00:00:36;;;;;;;32.50;16.30;;;;;;;5.40;100.00;101071.06;1728786;83;21614;-61
2022/04/22 00:03:02;;;;;;;35.23;17.60;;;;;;;5.38;100.00;101076.63;1728650;81;21139;-60
2022/04/22 00:05:30;;;;;;;34.45;18.23;;;;;;;5.28;100.00;101073.78;1728523;83;21060;-61
2022/04/22 00:07:58;;;;;;;33.80;18.85;;;;;;;5.17;100.00;101075.62;1728717;83;21123;-61
2022/04/22 00:10:27;;;;;;;32.70;17.80;;;;;;;5.07;100.00;101071.08;1728337;83;21048;-62
2022/04/22 00:12:56;;;;;;;32.20;18.65;;;;;;;5.00;100.00;101071.56;1728596;83;21088;-62
2022/04/22 00:15:24;;;;;;;31.93;17.60;;;;;;;4.98;100.00;101073.73;1728886;83;21012;-61
2022/04/22 00:17:52;;;;;;;30.80;17.65;;;;;;;4.99;100.00;101071.61;1728569;83;21029;-61
2022/04/22 00:20:23;;;;;;;36.90;19.70;;;;;;;5.05;100.00;101070.67;1726430;83;21060;-60
2022/04/22 00:22:52;;;;;;;40.52;22.80;;;;;;;5.01;100.00;101074.55;1726284;83;21064;-61
2022/04/22 00:25:19;;;;;;;47.60;23.98;;;;;;;5.06;100.00;101072.38;1726354;83;21099;-61
2022/04/22 00:27:48;;;;;;;44.10;21.50;;;;;;;5.18;100.00;101065.84;1726253;83;21552;-61
2022/04/22 00:30:15;;;;;;;61.83;27.77;;;;;;;5.18;100.00;101065.84;1726624;83;21493;-61
2022/04/22 00:32:44;;;;;;;41.73;22.65;;;;;;;5.30;100.00;101069.50;1726295;83;21040;-61
2022/04/22 00:35:11;;;;;;;51.90;25.60;;;;;;;5.39;100.00;101064.70;1726369;83;21553;-61
2022/04/22 00:37:42;;;;;;;50.12;25.60;;;;;;;5.45;100.00;101053.56;1726501;83;21096;-61
2022/04/22 00:40:10;;;;;;;57.62;27.25;;;;;;;5.45;100.00;101053.56;1726456;83;21032;-61
2022/04/22 00:42:38;;;;;;;57.73;27.67;;;;;;;5.52;100.00;101056.02;1726707;83;21028;-60
2022/04/22 00:45:08;;;;;;;61.88;28.38;;;;;;;5.68;100.00;101052.80;1726784;83;21044;-61
2022/04/22 00:47:35;;;;;;;44.75;20.88;;;;;;;5.76;100.00;101061.64;1726827;83;21079;-61
2022/04/22 00:50:03;;;;;;;37.00;17.90;;;;;;;5.73;100.00;101061.22;1726262;83;21045;-61
2022/04/22 00:52:31;;;;;;;30.15;14.90;;;;;;;5.36;100.00;101066.86;1726537;83;21560;-61
2022/04/22 00:55:00;;;;;;;30.32;13.83;;;;;;;5.31;100.00;101064.83;1726681;83;21020;-61
2022/04/22 00:57:29;;;;;;;32.65;14.10;;;;;;;5.31;100.00;101064.83;1726426;83;21047;-61
2022/04/22 00:59:56;;;;;;;33.83;13.65;;;;;;;5.29;100.00;101069.11;1726759;83;21552;-61
2022/04/22 01:02:23;;;;;;;35.60;15.78;;;;;;;5.37;100.00;101067.70;1726432;82;21088;-61
2022/04/22 01:10:25;;;;;;;36.50;19.25;;;;;;;5.37;100.00;101069.84;1726355;83;21013;-60
2022/04/22 01:12:54;;;;;;;39.80;18.25;;;;;;;5.34;100.00;101074.98;1726153;83;21544;-61
2022/04/22 01:15:24;;;;;;;37.55;16.90;;;;;;;5.34;100.00;101074.98;1726455;83;21135;-60
2022/04/22 01:17:52;;;;;;;39.25;17.42;;;;;;;5.27;100.00;101072.11;1726244;83;21052;-60
2022/04/22 01:20:20;;;;;;;34.05;17.65;;;;;;;5.19;100.00;101060.72;1726121;83;21500;-61
2022/04/22 01:22:48;;;;;;;37.55;17.90;;;;;;;5.17;100.00;101065.00;1726334;83;21270;-61
2022/04/22 01:25:16;;;;;;;53.85;24.75;;;;;;;5.17;100.00;101065.00;1726455;83;21045;-61
2022/04/22 01:27:51;;;;;;;61.28;25.80;;;;;;;5.13;100.00;101067.59;1726263;83;21072;-60
2022/04/22 01:30:22;;;;;;;66.00;25.17;;;;;;;5.17;100.00;101071.37;1726607;83;21564;-60
2022/04/22 01:32:58;;;;;;;54.05;25.10;;;;;;;5.15;100.00;101075.66;1726591;83;21048;-60
2022/04/22 01:35:24;;;;;;;52.75;24.92;;;;;;;5.15;100.00;101070.55;1726162;83;21624;-60
2022/04/22 01:37:52;;;;;;;48.52;22.75;;;;;;;5.17;100.00;101066.69;1726515;83;21071;-61
2022/04/22 01:40:19;;;;;;;55.48;24.10;;;;;;;5.14;100.00;101066.73;1726336;83;21034;-60
2022/04/22 01:42:48;;;;;;;51.55;24.95;;;;;;;5.13;100.00;101068.86;1726398;83;21612;-60
2022/04/22 01:45:18;;;;;;;52.30;24.67;;;;;;;5.16;100.00;101065.84;1726344;83;21084;-61
2022/04/22 01:47:45;;;;;;;49.75;22.22;;;;;;;5.14;100.00;101066.30;1726433;83;21056;-61
2022/04/22 01:50:16;;;;;;;50.20;21.70;;;;;;;5.14;100.00;101066.30;1726161;83;21020;-61
2022/04/22 01:52:43;;;;;;;49.23;21.15;;;;;;;5.13;100.00;101068.86;1726605;83;21111;-61
2022/04/22 01:55:11;;;;;;;43.98;20.52;;;;;;;5.08;100.00;101065.54;1726471;83;21080;-61
2022/04/22 01:57:38;;;;;;;50.05;21.75;;;;;;;5.08;100.00;101067.66;1726353;83;21529;-60
2022/04/22 02:00:07;;;;;;;42.90;21.17;;;;;;;5.02;100.00;101066.02;1726592;83;21087;-60
2022/04/22 02:02:36;;;;;;;45.65;20.97;;;;;;;5.09;100.00;101065.53;1726299;82;21556;-60
2022/04/22 02:05:10;;;;;;;42.85;21.60;;;;;;;5.17;100.00;101066.69;1726347;83;21568;-61
2022/04/22 02:07:35;;;;;;;51.77;20.92;;;;;;;5.15;100.00;101074.79;1725969;83;21005;-60
2022/04/22 02:10:06;;;;;;;44.23;20.43;;;;;;;5.05;100.00;101075.77;1726403;83;21056;-60
2022/04/22 02:12:34;;;;;;;44.60;21.23;;;;;;;5.08;100.00;101071.48;1726256;83;21095;-60
2022/04/22 02:15:03;;;;;;;38.53;18.40;;;;;;;5.32;100.00;101075.43;1726566;83;21044;-60
2022/04/22 02:17:32;;;;;;;37.45;18.75;;;;;;;5.29;100.00;101080.59;1726270;83;21489;-61
2022/04/22 02:20:01;;;;;;;33.67;17.62;;;;;;;5.34;100.00;101083.08;1726103;83;21064;-60
2022/04/22 02:22:29;;;;;;;34.23;17.45;;;;;;;5.23;100.00;101088.30;1726409;83;21564;-61
2022/04/22 02:24:57;;;;;;;33.65;18.35;;;;;;;5.26;100.00;101089.99;1726255;83;21549;-60
2022/04/22 02:30:12;;;;;;;32.93;18.55;;;;;;;5.40;100.00;101097.03;1726306;83;21048;-60
2022/04/22 02:32:39;;;;;;;36.28;19.27;;;;;;;5.39;100.00;101101.72;1726412;83;21040;-60
2022/04/22 02:35:08;;;;;;;39.38;19.30;;;;;;;5.32;100.00;101106.06;1726448;83;21048;-61
2022/04/22 02:37:36;;;;;;;35.33;18.30;;;;;;;5.19;100.00;101102.83;1726462;83;21008;-60
2022/04/22 02:40:07;;;;;;;34.53;18.65;;;;;;;5.26;100.00;101110.41;1726148;83;21560;-60
2022/04/22 02:45:27;;;;;;;41.10;19.40;;;;;;;5.26;100.00;101099.77;1726192;83;21044;-60
2022/04/22 02:47:57;;;;;;;35.85;18.45;;;;;;;5.38;100.00;101112.37;1726424;83;21012;-60
2022/04/22 02:50:24;;;;;;;35.73;19.27;;;;;;;5.38;100.00;101112.37;1726214;83;21056;-60
2022/04/22 02:52:53;;;;;;;33.90;17.65;;;;;;;5.35;100.00;101117.94;1726380;83;21091;-61
2022/04/22 02:55:20;;;;;;;27.87;14.35;;;;;;;5.36;100.00;101115.37;1726235;83;21064;-61
2022/04/22 02:57:49;;;;;;;23.67;11.22;;;;;;;5.37;100.00;101118.77;1726197;83;21529;-60
2022/04/22 03:00:18;;;;;;;16.10;8.63;;;;;;;5.24;100.00;101130.84;1726271;83;21083;-60
2022/04/22 03:02:48;;;;;;;14.58;8.05;;;;;;;5.19;100.00;101118.55;1726152;82;21107;-60
2022/04/22 03:05:17;;;;;;;14.70;8.10;;;;;;;5.14;100.00;101120.33;1726151;83;21044;-61
2022/04/22 03:07:45;;;;;;;17.05;8.48;;;;;;;5.09;100.00;101124.63;1726073;83;21068;-61
2022/04/22 03:10:13;;;;;;;11.80;7.42;;;;;;;5.42;100.00;101133.16;1726218;83;21052;-61
2022/04/22 03:12:42;;;;;;;10.78;6.22;;;;;;;5.34;100.00;101131.58;1726129;83;21076;-60
2022/04/22 03:15:10;;;;;;;11.05;7.03;;;;;;;5.29;100.00;101136.75;1726252;83;21021;-62
2022/04/22 03:17:37;;;;;;;15.15;7.92;;;;;;;5.42;100.00;101129.78;1726195;83;21088;-61
2022/04/22 03:20:06;;;;;;;15.10;8.20;;;;;;;5.42;100.00;101129.78;1726180;83;21068;-61
2022/04/22 03:22:33;;;;;;;18.85;10.90;;;;;;;5.64;100.00;101144.39;1726393;83;21071;-61
2022/04/22 03:25:03;;;;;;;17.67;10.55;;;;;;;5.77;100.00;101142.06;1726233;83;21084;-61
2022/04/22 03:27:31;;;;;;;22.95;10.95;;;;;;;5.81;100.00;101145.42;1723621;83;21036;-61
2022/04/22 03:29:59;;;;;;;20.12;10.45;;;;;;;5.76;100.00;101140.39;1702450;84;21026;-61
2022/04/22 03:32:26;;;;;;;20.17;11.68;;;;;;;5.92;100.00;101149.09;1702426;84;20987;-61
2022/04/22 03:34:53;;;;;;;25.02;12.73;;;;;;;6.10;100.00;101143.73;1703297;84;21042;-62
2022/04/22 03:37:22;;;;;;;25.02;13.60;;;;;;;6.11;100.00;101146.72;1702781;84;21027;-61
2022/04/22 03:39:52;;;;;;;26.10;13.40;;;;;;;6.06;100.00;101148.48;1703426;84;21027;-62
2022/04/22 03:42:20;;;;;;;23.40;11.90;;;;;;;6.00;100.00;101153.69;1702844;84;21050;-62
2022/04/22 03:44:47;;;;;;;29.60;12.28;;;;;;;5.94;100.00;101153.75;1702848;84;21022;-61
2022/04/22 03:47:16;;;;;;;22.82;12.43;;;;;;;5.99;100.00;101150.73;1702992;84;21050;-62
2022/04/22 03:49:44;;;;;;;20.70;11.33;;;;;;;6.15;100.00;101152.19;1703236;84;21015;-61
2022/04/22 03:52:13;;;;;;;18.87;10.65;;;;;;;6.24;100.00;101162.70;1703406;84;21550;-61
2022/04/22 03:54:42;;;;;;;21.15;11.57;;;;;;;6.30;100.00;101159.21;1703769;84;21066;-61
2022/04/22 03:59:48;;;;;;;18.77;10.65;;;;;;;6.36;100.00;101156.11;1674394;84;21050;-61
2022/04/22 04:02:17;;;;;;;20.40;9.95;;;;;;;6.42;100.00;101160.28;1703712;83;21039;-61
2022/04/22 04:04:48;;;;;;;23.38;9.48;;;;;;;6.45;100.00;101161.53;1703749;84;21050;-61
2022/04/22 04:07:15;;;;;;;35.40;9.70;;;;;;;6.57;100.00;101157.48;1713701;83;21068;-61
2022/04/22 04:18:06;;;;;;;20.43;11.33;;;;;;;7.04;100.00;101154.11;1726067;83;21068;-61
2022/04/22 04:23:24;;;;;;;30.08;13.75;;;;;;;7.27;100.00;101141.67;1726176;83;21037;-61
2022/04/22 04:25:51;;;;;;;25.52;13.28;;;;;;;7.31;100.00;101147.14;1726466;83;21008;-61
2022/04/22 04:28:18;;;;;;;23.20;12.68;;;;;;;7.42;100.00;101145.63;1726157;83;21049;-61
2022/04/22 04:30:47;;;;;;;25.88;12.50;;;;;;;7.66;100.00;101157.09;1726263;83;21024;-61
2022/04/22 04:33:15;;;;;;;23.30;13.28;;;;;;;7.92;100.00;101156.52;1726192;83;21048;-61
2022/04/22 04:35:46;;;;;;;28.42;12.05;;;;;;;7.93;100.00;101150.52;1726188;83;21071;-61
2022/04/22 04:38:15;;;;;;;24.82;12.70;;;;;;;7.99;100.00;101153.39;1726396;83;21127;-62
2022/04/22 04:40:45;;;;;;;24.70;12.30;;;;;;;8.26;100.00;101156.19;1726012;83;21569;-61
2022/04/22 04:43:12;;;;;;;28.42;12.53;;;;;;;8.27;100.00;101157.85;1726474;83;21060;-61
2022/04/22 04:45:41;;;;;;;18.98;11.20;;;;;;;8.41;100.00;101159.67;1726300;83;21025;-61
2022/04/22 04:48:10;;;;;;;27.82;12.03;;;;;;;8.40;100.00;101160.09;1726043;83;21075;-61
2022/04/22 04:50:43;;;;;;;21.05;11.38;;;;;;;8.62;100.00;101166.02;1726376;83;21013;-61
2022/04/22 04:53:13;;;;;;;23.05;12.15;;;;;;;8.69;100.00;101167.97;1726268;83;21052;-61
2022/04/22 04:55:42;;;;;;;17.23;10.48;;;;;;;8.65;100.00;101170.22;1726324;83;21060;-61
2022/04/22 04:58:11;;;;;;;19.42;10.78;;;;;;;8.71;100.00;101168.33;1726147;83;21033;-61
2022/04/22 05:00:38;;;;;;;18.25;10.63;;;;;;;8.77;100.00;101172.02;1726148;83;21123;-61
2022/04/22 05:03:06;;;;;;;20.08;11.43;;;;;;;9.08;100.00;101175.05;1726086;82;21116;-61
2022/04/22 05:05:33;;;;;;;23.85;11.93;;;;;;;9.29;100.00;101173.64;1726320;83;21080;-61
2022/04/22 05:08:01;;;;;;;19.50;11.97;;;;;;;9.56;100.00;101174.56;1726135;83;21017;-61
2022/04/22 05:10:31;;;;;;;20.48;12.82;;;;;;;9.49;100.00;101173.08;1726212;83;21008;-62
2022/04/22 05:12:59;;;;;;;27.95;16.55;;;;;;;9.56;100.00;101177.58;1726226;83;21563;-61
2022/04/22 05:15:28;;;;;;;33.28;17.50;;;;;;;9.35;100.00;101185.02;1704771;83;21024;-61
2022/04/22 05:18:02;;;;;;;29.72;16.77;;;;;;;9.30;100.00;101185.58;1726107;83;21046;-61
2022/04/22 05:20:29;;;;;;;26.33;15.78;;;;;;;9.36;100.00;101187.98;1726771;83;21592;-62
2022/04/22 05:22:58;;;;;;;24.70;14.98;;;;;;;9.68;100.00;101183.65;1728840;83;21061;-61
2022/04/22 05:25:26;;;;;;;19.30;13.58;;;;;;;9.68;100.00;101187.50;1728596;83;21114;-61
2022/04/22 05:27:55;;;;;;;24.85;14.70;;;;;;;9.92;100.00;101181.24;1728707;83;21008;-61
2022/04/22 05:33:08;;;;;;;21.95;14.50;;;;;;;9.93;100.00;101182.45;1728857;83;21051;-61
2022/04/22 05:35:36;;;;;;;25.05;15.13;;;;;;;10.06;100.00;101182.08;1728618;83;21132;-60
2022/04/22 05:38:06;;;;;;;24.35;15.10;;;;;;;10.09;100.00;101172.99;1728701;83;21540;-61
2022/04/22 05:40:40;;;;;;;22.52;15.40;;;;;;;10.30;100.00;101175.34;1728660;83;21071;-61
2022/04/22 05:43:09;;;;;;;22.98;14.33;;;;;;;10.41;100.00;101180.55;1727955;83;21080;-61
2022/04/22 05:45:38;;;;;;;22.70;14.58;;;;;;;10.71;100.00;101187.33;1728743;83;21564;-61
2022/04/22 05:48:07;;;;;;;26.42;15.43;;;;;;;11.16;100.00;101190.48;1728647;83;21620;-61
2022/04/22 05:50:35;;;;;;;23.75;14.93;;;;;;;11.22;100.00;101199.28;1728710;83;21540;-61
2022/04/22 05:53:03;;;;;;;25.23;15.78;;;;;;;11.16;100.00;101197.76;1728478;83;21544;-61
2022/04/22 05:55:32;;;;;;;28.65;15.38;;;;;;;11.18;100.00;101206.27;1728501;83;21028;-61
2022/04/22 05:58:00;;;;;;;25.25;15.40;;;;;;;11.36;100.00;101203.95;1728794;83;21032;-61
2022/04/22 06:00:31;;;;;;;23.25;15.68;;;;;;;11.36;100.00;101203.49;1728357;83;21005;-61
2022/04/22 06:03:00;;;;;;;24.67;15.45;;;;;;;11.29;100.00;101205.88;1728539;82;21083;-61
2022/04/22 06:05:27;;;;;;;22.25;14.63;;;;;;;11.47;100.00;101211.28;1705863;83;21076;-61
2022/04/22 06:10:43;;;;;;;19.62;13.72;;;;;;;12.00;100.00;101208.45;1728956;83;21592;-61
2022/04/22 06:13:12;;;;;;;22.60;14.50;;;;;;;11.80;100.00;101215.63;1728492;83;21036;-61
2022/04/22 06:15:41;;;;;;;22.67;14.65;;;;;;;11.89;100.00;101214.03;1728789;83;21080;-61
2022/04/22 06:18:10;;;;;;;20.45;14.68;;;;;;;12.03;100.00;101214.80;1728506;83;21075;-61
2022/04/22 06:20:40;;;;;;;24.18;15.60;;;;;;;12.04;100.00;101208.72;1724267;83;21061;-61
2022/04/22 06:23:09;;;;;;;19.35;13.72;;;;;;;12.35;100.00;101205.78;1716748;83;21095;-61
2022/04/22 06:25:45;;;;;;;18.73;13.80;;;;;;;12.49;100.00;101210.39;1716781;83;21087;-61
2022/04/22 06:28:09;;;;;;;21.40;14.45;;;;;;;12.61;100.00;101215.05;1716371;83;21041;-61
2022/04/22 06:30:37;;;;;;;20.02;14.35;;;;;;;12.57;100.00;101206.17;1716787;83;21033;-61
2022/04/22 06:33:07;;;;;;;21.05;14.35;;;;;;;12.70;100.00;101213.81;1716629;83;21041;-61
2022/04/22 06:35:35;;;;;;;19.42;14.25;;;;;;;12.58;100.00;101213.87;1717084;83;21033;-61
2022/04/22 06:38:04;;;;;;;18.57;14.10;;;;;;;13.05;100.00;101215.35;1716916;83;21112;-61
2022/04/22 06:46:09;;;;;;;18.55;14.23;;;;;;;13.32;100.00;101214.66;1716817;83;21076;-61
2022/04/22 06:48:38;;;;;;;19.23;14.65;;;;;;;13.54;100.00;101212.38;1709067;83;21556;-60
2022/04/22 06:51:06;;;;;;;17.40;14.10;;;;;;;13.14;100.00;101212.39;1687338;85;21012;-61
2022/04/22 06:53:35;;;;;;;18.32;14.33;;;;;;;13.12;100.00;101210.75;1686617;84;21071;-61
2022/04/22 06:56:09;;;;;;;20.85;15.38;;;;;;;13.07;100.00;101214.00;1686584;84;21043;-61
2022/04/22 06:58:38;;;;;;;20.55;15.83;;;;;;;12.83;100.00;101206.38;1686432;85;21035;-61
2022/04/22 07:01:08;;;;;;;21.55;15.85;;;;;;;12.82;100.00;101204.72;1686364;84;21071;-61
2022/04/22 07:03:36;;;;;;;19.98;16.62;;;;;;;12.86;100.00;101211.89;1686694;84;21023;-61
2022/04/22 07:06:05;;;;;;;22.90;17.50;;;;;;;12.78;100.00;101207.05;1686401;84;21074;-61
2022/04/22 07:08:33;;;;;;;20.80;16.70;;;;;;;12.89;100.00;101211.29;1690525;84;21048;-61
2022/04/22 07:11:03;;;;;;;22.85;16.32;;;;;;;12.95;100.00;101211.48;1690651;85;21107;-61
2022/04/22 07:13:33;;;;;;;20.85;16.37;;;;;;;13.16;100.00;101208.45;1690473;85;21603;-61
2022/04/22 07:16:02;;;;;;;19.17;15.83;;;;;;;13.22;100.00;101205.59;1669299;85;21016;-61
2022/04/22 07:18:30;;;;;;;23.42;17.90;;;;;;;13.34;100.00;101210.25;1690528;85;21076;-61
2022/04/22 07:21:00;;;;;;;24.40;17.65;;;;;;;13.29;100.00;101205.73;1686967;85;21073;-61
2022/04/22 07:23:27;;;;;;;24.57;17.23;;;;;;;13.44;100.00;101211.95;1681368;85;21645;-61
2022/04/22 07:25:58;;;;;;;21.27;16.70;;;;;;;13.50;100.00;101211.67;1681103;85;21621;-62
2022/04/22 07:28:30;;;;;;;22.87;16.25;;;;;;;13.62;100.00;101215.45;1681251;85;21093;-61
2022/04/22 07:30:59;;;;;;;22.37;16.97;;;;;;;13.91;100.00;101208.09;1681352;85;21115;-62
2022/04/22 07:33:27;;;;;;;21.60;15.95;;;;;;;14.17;100.00;101201.69;1681251;85;21073;-62
2022/04/22 07:35:58;;;;;;;22.27;16.27;;;;;;;14.32;100.00;101207.44;1681045;85;21494;-61
2022/04/22 07:38:26;;;;;;;20.60;15.95;;;;;;;14.36;100.00;101200.36;1681263;85;21556;-62
2022/04/22 07:40:54;;;;;;;20.37;16.37;;;;;;;14.51;100.00;101197.46;1681057;85;21177;-61
2022/04/22 07:48:59;;;;;;;19.62;15.50;;;;;;;14.88;100.00;101203.41;1681334;85;21089;-61
2022/04/22 07:51:28;;;;;;;20.17;15.20;;;;;;;15.26;100.00;101199.30;1681042;85;21080;-62
2022/04/22 07:53:56;;;;;;;15.88;13.00;;;;;;;15.67;100.00;101201.44;1681346;85;21080;-61
2022/04/22 07:56:25;;;;;;;19.35;12.88;;;;;;;15.92;99.74;101199.68;1681033;85;21104;-61
2022/04/22 07:58:53;;;;;;;12.93;11.28;;;;;;;16.27;97.73;101198.98;1681303;85;21069;-62
2022/04/22 08:01:20;;;;;;;13.70;11.75;;;;;;;16.51;95.06;101199.34;1681341;84;21116;-61
2022/04/22 08:03:49;;;;;;;11.60;10.15;;;;;;;16.26;93.51;101206.41;1681166;85;21564;-61
2022/04/22 08:06:17;;;;;;;9.75;8.68;;;;;;;16.01;92.15;101203.05;1681562;85;21608;-61
2022/04/22 08:08:46;;;;;;;9.93;8.93;;;;;;;16.62;89.50;101207.33;1687634;85;21069;-61
2022/04/22 08:11:14;;;;;;;10.00;8.55;;;;;;;17.10;84.39;101207.16;1687654;85;21053;-61
2022/04/22 08:13:42;;;;;;;9.90;8.73;;;;;;;17.32;81.42;101202.78;1687608;85;21080;-61
2022/04/22 08:16:09;;;;;;;11.33;8.78;;;;;;;17.52;80.36;101204.16;1687650;85;21132;-62
2022/04/22 08:18:38;;;;;;;10.65;8.75;;;;;;;17.65;77.01;101204.70;1687824;85;21143;-61
2022/04/22 08:21:08;;;;;;;9.50;8.50;;;;;;;17.85;76.40;101199.56;1686793;85;21110;-61
2022/04/22 08:23:34;;;;;;;8.90;8.00;;;;;;;17.77;78.28;101200.84;1685096;85;21053;-61
2022/04/22 08:26:04;;;;;;;9.28;8.28;;;;;;;17.61;77.45;101196.23;1684768;85;21029;-62
2022/04/22 08:28:31;;;;;;;10.15;8.35;;;;;;;17.53;73.99;101201.91;1685038;85;21045;-61
2022/04/22 08:30:58;;;;;;;9.70;8.70;;;;;;;17.45;74.46;101198.12;1685241;85;21084;-62
2022/04/22 08:33:27;;;;;;;10.13;8.35;;;;;;;17.47;75.06;101198.39;1684908;85;21072;-62
2022/04/22 08:35:56;;;;;;;9.00;8.10;;;;;;;17.47;73.20;101192.36;1684984;85;21084;-61
2022/04/22 08:38:25;;;;;;;9.65;8.65;;;;;;;17.37;71.56;101190.78;1684984;85;21620;-61
2022/04/22 08:40:52;;;;;;;9.58;8.65;;;;;;;17.45;73.85;101191.62;1684738;85;21136;-62
2022/04/22 08:43:21;;;;;;;10.80;8.78;;;;;;;17.27;74.24;101183.17;1685322;85;21522;-62
2022/04/22 08:45:49;;;;;;;9.93;8.93;;;;;;;17.01;74.77;101193.39;1685022;85;21715;-61
2022/04/22 08:50:54;;;;;;;10.20;8.75;;;;;;;17.33;72.03;101185.40;1636204;85;21926;-61
2022/04/22 08:53:27;;;;;;;10.10;8.88;;;;;;;17.44;71.09;101185.59;1685075;85;21108;-61
2022/04/22 08:56:00;;;;;;;10.95;9.23;;;;;;;17.56;71.83;101183.98;1685219;84;21565;-61
2022/04/22 08:58:27;;;;;;;9.83;8.83;;;;;;;17.92;73.30;101191.24;1685074;85;21060;-62
2022/04/22 09:00:57;;;;;;;8.60;7.80;;;;;;;18.31;71.08;101187.45;1685110;85;21112;-61
2022/04/22 09:03:28;;;;;;;10.23;8.63;;;;;;;18.59;68.68;101186.01;1685258;85;21097;-61
2022/04/22 09:05:57;;;;;;;9.35;8.08;;;;;;;19.12;67.18;101182.02;1684981;85;21068;-62
2022/04/22 09:08:26;;;;;;;9.50;7.42;;;;;;;19.19;65.40;101179.80;1685356;85;21493;-61
2022/04/22 10:13:46;;;;;;;7.10;5.37;;;;;;;19.05;61.81;101188.58;1888753;74;22723;-64
2022/04/22 10:16:14;;;;;;;6.97;6.28;;;;;;;18.96;62.05;101184.84;1818987;79;20979;-63
2022/04/22 10:18:44;;;;;;;6.85;5.53;;;;;;;18.69;59.10;101184.89;1853046;77;21042;-63
2022/04/22 10:21:11;;;;;;;6.15;5.47;;;;;;;18.78;59.91;101186.07;1844231;78;21025;-63
2022/04/22 10:23:39;;;;;;;7.05;6.35;;;;;;;18.77;59.20;101185.69;1844472;78;21021;-62
2022/04/22 10:26:08;;;;;;;7.22;6.30;;;;;;;18.88;61.48;101188.92;1843893;78;21050;-63
2022/04/22 10:28:38;;;;;;;6.10;5.50;;;;;;;18.71;59.07;101188.23;1844339;78;21034;-62
2022/04/22 10:31:06;;;;;;;7.20;6.50;;;;;;;18.84;60.10;101188.29;1844557;78;21062;-63
2022/04/22 10:33:44;;;;;;;7.12;6.42;;;;;;;19.17;62.51;101182.98;1812025;78;21057;-63
2022/04/22 10:36:15;;;;;;;7.10;6.22;;;;;;;19.49;59.28;101191.66;1844433;78;21505;-63
2022/04/22 10:38:49;;;;;;;7.80;7.00;;;;;;;19.19;55.49;101190.24;1844411;78;21005;-63
2022/04/22 10:41:20;;;;;;;8.20;7.15;;;;;;;18.81;55.55;101196.31;1844503;78;21529;-63
2022/04/22 10:49:46;;;;;;;7.60;6.83;;;;;;;18.47;55.33;101197.26;1844384;78;21018;-63
2022/04/22 10:52:19;;;;;;;9.05;7.28;;;;;;;18.57;57.45;101193.09;1844404;78;21049;-63
2022/04/22 10:54:58;;;;;;;9.13;7.60;;;;;;;18.54;55.89;101194.59;1844591;78;21006;-63
2022/04/22 10:57:33;;;;;;;7.78;7.08;;;;;;;18.32;56.20;101191.27;1844151;78;21533;-63
2022/04/22 11:00:09;;;;;;;9.35;7.33;;;;;;;18.41;55.57;101188.06;1844535;78;21061;-63
2022/04/22 11:02:41;;;;;;;8.28;7.40;;;;;;;18.35;55.53;101188.47;1821952;78;21055;-63
2022/04/22 11:05:25;;;;;;;8.25;7.05;;;;;;;18.66;54.80;101180.38;1810847;79;21009;-63
2022/04/22 11:07:58;;;;;;;8.00;7.20;;;;;;;18.75;55.15;101181.05;1810557;79;21026;-63
2022/04/22 11:10:48;;;;;;;8.90;7.15;;;;;;;18.71;55.34;101180.89;1810871;79;21089;-63
2022/04/22 11:13:33;;;;;;;8.00;6.90;;;;;;;18.75;55.68;101175.35;1805715;78;21058;-63
2022/04/22 11:16:22;;;;;;;8.45;7.12;;;;;;;18.87;54.80;101171.59;1804300;79;21089;-63
2022/04/22 11:19:22;;;;;;;8.95;7.05;;;;;;;19.10;53.44;101163.47;1804130;78;21062;-63
2022/04/22 11:21:55;;;;;;;9.53;7.90;;;;;;;19.23;55.57;101162.16;1804171;78;21530;-63
2022/04/22 11:24:36;;;;;;;7.40;6.60;;;;;;;18.87;53.80;101155.45;1804324;78;21014;-63
2022/04/22 11:27:11;;;;;;;7.90;7.10;;;;;;;18.35;54.44;101159.80;1802514;79;21061;-63
2022/04/22 11:29:42;;;;;;;9.40;7.00;;;;;;;18.56;55.82;101164.52;1803927;78;21022;-63
2022/04/22 11:32:23;;;;;;;7.65;6.85;;;;;;;18.75;54.68;101161.48;1804220;79;21058;-63
2022/04/22 11:35:21;;;;;;;8.48;7.30;;;;;;;19.21;55.00;101154.43;1804102;78;21475;-63
2022/04/22 11:38:00;;;;;;;8.98;7.47;;;;;;;18.92;54.36;101149.47;1804411;78;21601;-63
2022/04/22 11:40:27;;;;;;;8.33;7.15;;;;;;;18.78;53.69;101153.47;1804246;79;21038;-63
2022/04/22 11:42:56;;;;;;;8.10;7.30;;;;;;;18.79;54.39;101152.55;1803930;79;21058;-63
2022/04/22 11:45:23;;;;;;;9.33;7.00;;;;;;;18.95;54.23;101147.94;1804053;79;21546;-63
2022/04/22 11:47:52;;;;;;;7.83;7.03;;;;;;;19.09;51.87;101150.07;1803869;78;21550;-63
2022/04/22 11:50:22;;;;;;;8.38;7.03;;;;;;;19.08;51.81;101152.30;1804471;79;21486;-63
2022/04/22 11:52:56;;;;;;;8.43;6.78;;;;;;;18.77;51.74;101155.69;1804207;78;21024;-63
2022/04/22 11:55:25;;;;;;;8.48;6.30;;;;;;;18.75;54.31;101159.70;1804464;79;21066;-63
2022/04/22 11:57:53;;;;;;;9.28;6.58;;;;;;;18.83;55.21;101156.61;1804318;78;21517;-63
2022/04/22 12:05:55;;;;;;;8.18;7.08;;;;;;;18.92;55.56;101159.08;1776674;79;21027;-63
2022/04/22 12:08:23;;;;;;;9.18;7.55;;;;;;;18.77;54.82;101156.52;1803267;79;21043;-63
2022/04/22 12:10:51;;;;;;;8.90;7.33;;;;;;;18.83;55.17;101148.78;1804362;79;21494;-63
2022/04/22 12:13:19;;;;;;;8.75;7.25;;;;;;;18.90;56.52;101141.39;1803908;79;21042;-62
2022/04/22 12:15:48;;;;;;;8.50;7.53;;;;;;;19.10;56.11;101139.98;1804048;79;21026;-62
2022/04/22 12:18:32;;;;;;;8.95;7.65;;;;;;;19.29;56.11;101139.54;1804378;78;21035;-62
2022/04/22 12:21:01;;;;;;;10.43;7.58;;;;;;;19.34;56.46;101141.34;1804418;79;21081;-62
2022/04/22 12:23:41;;;;;;;9.70;7.60;;;;;;;19.55;55.14;101142.91;1804258;79;21058;-62
2022/04/22 12:26:22;;;;;;;10.03;8.15;;;;;;;19.52;56.08;101139.20;1786399;79;21062;-63
2022/04/22 12:29:13;;;;;;;9.58;7.92;;;;;;;19.59;56.94;101139.13;1771364;79;20968;-63
2022/04/22 12:31:46;;;;;;;9.45;8.05;;;;;;;19.41;57.19;101137.36;1804191;79;21518;-63
2022/04/22 12:34:17;;;;;;;10.38;8.65;;;;;;;19.40;56.35;101139.14;1804228;78;21042;-62
2022/04/22 12:36:58;;;;;;;9.20;8.30;;;;;;;19.18;55.69;101138.97;1802720;79;21078;-63
2022/04/22 12:39:42;;;;;;;9.65;8.18;;;;;;;19.15;56.93;101141.33;1804311;79;20986;-62
2022/04/22 12:42:29;;;;;;;10.05;8.95;;;;;;;19.00;57.43;101139.33;1803998;78;20987;-63
2022/04/22 12:54:08;;;;;;;10.55;9.45;;;;;;;18.90;57.89;101142.70;1803074;79;21039;-64
2022/04/22 12:56:36;;;;;;;14.80;10.43;;;;;;;18.50;58.64;101150.11;1803409;78;21545;-64
2022/04/22 12:59:05;;;;;;;12.75;9.15;;;;;;;18.27;59.58;101150.35;1803107;79;21538;-64
2022/04/22 13:01:37;;;;;;;11.15;9.78;;;;;;;18.21;59.81;101145.07;1802913;78;21129;-64
2022/04/22 13:04:08;;;;;;;11.03;8.63;;;;;;;18.11;60.23;101143.18;1803177;78;21078;-64
2022/04/22 13:06:50;;;;;;;10.98;8.38;;;;;;;17.80;60.51;101149.02;1769771;79;21113;-64
2022/04/22 13:09:22;;;;;;;11.08;8.68;;;;;;;17.98;60.99;101144.43;1803388;78;21521;-64
2022/04/22 13:11:51;;;;;;;12.03;9.30;;;;;;;18.08;60.16;101139.46;1803168;78;21101;-63
2022/04/22 13:14:19;;;;;;;13.80;9.15;;;;;;;18.45;60.47;101147.44;1803001;78;21102;-64
2022/04/22 13:16:48;;;;;;;9.93;8.78;;;;;;;18.64;59.70;101140.06;1803210;79;21069;-64
2022/04/22 13:19:17;;;;;;;9.83;8.15;;;;;;;18.81;59.11;101140.23;1803072;78;21062;-64
2022/04/22 13:21:45;;;;;;;9.85;8.53;;;;;;;18.69;58.44;101147.56;1803154;79;21042;-64
2022/04/22 13:24:13;;;;;;;10.55;8.25;;;;;;;18.59;59.08;101142.98;1803110;79;21082;-63
2022/04/22 13:26:41;;;;;;;11.12;9.58;;;;;;;18.35;58.43;101140.70;1803375;78;21128;-64
2022/04/22 13:29:10;;;;;;;11.08;9.80;;;;;;;18.32;59.82;101146.13;1803038;79;21057;-64
2022/04/22 13:31:38;;;;;;;11.85;9.83;;;;;;;18.59;60.38;101142.98;1803627;78;21117;-64